Rhodhizz, North Carolina
Current Conditions -  °F | °C
As of 6:53 PM on Wednesday 28 Jan 2015 (Local Time) from KHKY Reporting Station
Clear Clear  
Wind Chill: 40°   Ceiling: Unl
Heat Index: 40°   Visibility: 10mi
Dew Point: 17°   Wind: 0mph
Humidity: 40%   Direction: NA
Pressure: 30.24"   Gusts: NA
Location:  35.7739°N, 81.4315°W
Report Text: KHKY 282353Z 00000KT 10SM CLR 04/M08 A3024 RMK AO2 SLP237 T00441083 10094 20044 53014
Loading
Personal Weather Stations






























Interactive Weather Map New forecast layout! Learn more

10-Day Weather Forecast

Advertisements
Track Severe Weather on mobile